Arcola, PA

4:56 AM EDT on March 27, 2015 (GMT -0400)
Philadelphia Wings Airport | | Change Station
CLOSE
Current Station
Airport
Location: Philadelphia Wings Airport,
Elevation: 302 ft
Nearby Weather Stations

Elev 302 ft 40.14 °N, 75.27 °W | Updated 21 minutes ago

Rain
Rain
41 °F
Feels Like 39 °F
N
4
Wind Variable Wind from NNW

Today
High -- | Low -- °F
--% Chance of Precip.
Yesterday
High -- | Low -- °F
Precip. -- in
6:54 AM 7:20 PM
Waxing Crescent, 50% visible
Pressure 29.75 in
Visibility 7.0 miles
Clouds Scattered Clouds 1100 ft
Mostly Cloudy 2100 ft
Overcast 2800 ft
Windchill 39 °F
Dew Point 37 °F
Humidity 87%
Rainfall 0.36 in
Snow Depth Not available.
UV 0 out of 12
Pollen 5.40 out of 12
Air Quality Not available.
Flu Activity Not available.
METAR KLOM 270835Z AUTO 33003KT 7SM SCT011 BKN021 OVC028 05/03 A2975 RMK AO1 P0002

More Conditions Fewer Conditions

Pressure 29.75 in
Visibility 7.0 miles
Clouds Scattered Clouds 1100 ft
Mostly Cloudy 2100 ft
Overcast 2800 ft
Windchill 39 °F
Dew Point 37 °F
Humidity 87%
Rainfall 0.36 in
Snow Depth Not available.
UV 0 out of 12
Pollen 5.40 out of 12
Air Quality Not available.
Flu Activity Not available.
METAR KLOM 270835Z AUTO 33003KT 7SM SCT011 BKN021 OVC028 05/03 A2975 RMK AO1 P0002

More Conditions Fewer Conditions

Nowcast | as of 4:14 am EDT on March 27, 2015

Between now and 600 am, light rain will continue to fall in northeastern Maryland, northern Delaware, souheastern Pennsylvania and southwestern New Jersey. Additional rainfall is expected to be a few hundredths of an inch.

×

10-Day Weather Forecast

Almanac

Astronomy

Mar. 27, 2015 Rise Set
Actual Time
Civil Twilight
Nautical Twilight
Astronomical Twilight
Moon
Length of Visible Light
Length of Day
Tomorrow will be .
, % of the Moon is Illuminated

Today's Extremes

State Highs State Lows

Community

WunderPhotos

Upload Photos

1,808,705 photos uploaded!

WunderBlogs® & News

Nearby

Air Quality

  Air Quality AQ Index Pollutant
Not available.

Snow Depth

Station Depth Elevation

Earthquake Activity

City Distance Mag. Time & Date
Minimum magnitude displayed is 2.5.

Coastal Water Temperatures

Place Temperature

Stations

Nearby Weather Stations

Station Location Temp. Windchill Dew Point Humidity Wind Precip. Elev Updated Type